MHLC/LCE METAR and TAF weather

Enter ICAO airport designator
Station Type Date Time Source
MHLC METAR 2022/11/26 06:00 UTC NOAA

MHLC 260600Z 00000KT CAVOK 23/22 Q1013 A2992 NOSIG


Station Type Date Time Source
MHLC Decoded METAR 2022/11/26 06:00 UTC NOAA

La Ceiba Airport , Honduras (MHLC) 15-44N 086-52W 26M
Nov 26, 2022 - 01:00 AM EST / 2022.11.26 0600 UTC
Wind: Calm:0
Visibility: greater than 7 mile(s):0
Temperature: 73 F (23 C)
Dew Point: 71 F (22 C)
Relative Humidity: 94%
Pressure (altimeter): 29.92 in. Hg (1013 hPa)
ob: MHLC 260600Z 00000KT CAVOK 23/22 Q1013 A2992 NOSIG
cycle: 6

Station Type Date Time Source
MHLC TAF 2022/11/26 06:08 UTC NOAA

TAF MHLC 260500Z 2606/2706 VRB05KT 9999 SCT026 TX30/2619Z TN22/2612Z
BECMG 2617/2619 SCT032TCU FEW034CB
TEMPO 2621/2701 5000 TSRA
BECMG 2701/2703 SCT026 BKN070

Example: see airport list